Time;durP1;ratioP1;P1;durP2;ratioP2;P2;SDS_P1;SDS_P2;PMS_P1;PMS_P2;Temp;Humidity;BMP_temperature;BMP_pressure;BME280_temperature;BME280_humidity;BME280_pressure;Samples;Min_cycle;Max_cycle;Signal;HPM_P1;HPM_P2
2022/01/18 00:02:06;;;;;;;6.72;1.70;;;5.40;57.90;;;3.71;64.17;102793.31;8237841;28;20051;-85
2022/01/18 00:06:28;;;;;;;7.10;1.95;;;5.40;58.30;;;3.71;64.18;102799.34;8233773;28;20033;-85
2022/01/18 00:10:52;;;;;;;5.75;2.00;;;5.40;57.90;;;3.67;64.00;102807.94;8239155;28;20042;-86
2022/01/18 00:19:54;;;;;;;9.00;2.35;;;5.30;57.90;;;3.57;64.25;102800.97;8285818;28;20040;-84
2022/01/18 00:24:16;;;;;;;5.05;1.80;;;5.20;57.90;;;3.53;63.87;102809.53;8234942;28;20121;-85
2022/01/18 00:28:38;;;;;;;8.93;1.98;;;5.20;58.00;;;3.60;64.02;102831.13;8270539;28;20468;-84
2022/01/18 00:33:15;;;;;;;6.60;1.90;;;5.30;58.00;;;3.59;64.16;102844.88;8269579;28;20566;-84
2022/01/18 00:37:39;;;;;;;12.98;2.80;;;5.20;58.00;;;3.49;64.36;102833.63;8258198;28;20030;-84
2022/01/18 00:42:01;;;;;;;6.78;2.10;;;5.30;58.10;;;3.45;64.31;102830.13;8261724;28;20042;-84
2022/01/18 00:46:24;;;;;;;7.57;2.20;;;5.30;58.10;;;3.57;64.14;102844.03;8269556;28;20555;-84
2022/01/18 00:50:45;;;;;;;5.85;1.95;;;5.20;58.00;;;3.57;64.25;102856.94;8282070;28;20120;-84
2022/01/18 00:55:08;;;;;;;6.60;2.13;;;5.10;58.00;;;3.53;64.41;102850.84;8262507;28;20129;-84
2022/01/18 00:59:30;;;;;;;7.70;2.08;;;5.20;58.10;;;3.41;64.34;102841.31;8264558;28;20123;-84
2022/01/18 01:03:54;;;;;;;5.38;1.77;;;5.30;58.10;;;3.47;64.20;102864.59;8259146;28;20558;-84
2022/01/18 01:08:16;;;;;;;7.03;1.90;;;5.20;58.10;;;3.34;64.32;102834.34;8259491;28;20116;-84
2022/01/18 01:12:37;;;;;;;5.28;1.90;;;5.20;58.10;;;3.28;64.10;102842.91;8267874;28;20432;-84
2022/01/18 01:17:11;;;;;;;8.40;1.73;;;5.20;58.00;;;3.37;64.28;102870.50;8254638;28;20120;-84
2022/01/18 01:36:00;;;;;;;5.40;2.28;;;5.10;58.10;;;3.12;64.21;102838.44;8258508;28;20113;-84
2022/01/18 01:45:04;;;;;;;3.67;2.22;;;5.10;58.10;;;3.35;64.49;102884.25;8263394;28;20101;-85
2022/01/18 01:49:27;;;;;;;6.55;2.10;;;5.10;58.10;;;3.25;64.20;102881.59;8272717;28;20117;-85
2022/01/18 01:53:49;;;;;;;3.53;1.50;;;5.20;58.10;;;3.30;64.32;102885.09;8289673;28;20038;-85
2022/01/18 01:58:10;;;;;;;7.38;2.63;;;4.90;58.00;;;3.23;64.23;102882.44;8269911;28;20121;-85
2022/01/18 02:02:32;;;;;;;3.58;1.48;;;5.00;58.00;;;3.08;64.53;102868.53;8276210;28;20044;-85
2022/01/18 02:06:55;;;;;;;6.25;2.05;;;4.90;58.00;;;3.21;64.16;102882.41;8275346;28;20125;-85
2022/01/18 02:11:17;;;;;;;3.53;1.58;;;4.80;58.00;;;3.17;64.37;102874.63;8275210;28;20128;-85
2022/01/18 02:16:15;;;;;;;6.95;2.47;;;4.90;58.00;;;2.96;64.33;102849.47;8258159;28;20113;-85
2022/01/18 02:25:10;;;;;;;9.63;2.25;;;4.90;58.00;;;2.28;64.60;102760.16;8258486;28;20137;-85
2022/01/18 02:29:32;;;;;;;5.50;1.55;;;4.90;58.10;;;3.06;64.72;102874.53;8284214;28;20040;-85
2022/01/18 02:33:54;;;;;;;8.60;1.92;;;4.80;58.00;;;3.01;64.25;102860.69;8273145;28;20137;-85
2022/01/18 02:38:16;;;;;;;8.27;1.83;;;4.80;58.10;;;2.95;64.32;102861.50;8248181;28;20125;-85
2022/01/18 02:42:44;;;;;;;6.13;1.95;;;4.70;58.00;;;3.02;64.30;102877.91;8262421;28;20038;-85
2022/01/18 02:47:06;;;;;;;3.22;1.67;;;4.70;58.00;;;2.88;64.31;102854.53;8267716;28;20121;-84
2022/01/18 02:51:28;;;;;;;6.60;2.47;;;4.70;58.00;;;2.90;64.36;102868.31;8254705;28;20117;-85
2022/01/18 02:55:56;;;;;;;5.07;1.92;;;4.70;58.00;;;2.83;64.08;102871.66;8249655;28;20044;-84
2022/01/18 03:00:31;;;;;;;5.70;1.90;;;4.60;57.90;;;2.85;64.21;102891.47;8246010;28;20046;-84
2022/01/18 03:04:52;;;;;;;4.87;1.80;;;4.60;57.90;;;2.80;64.12;102897.44;8271414;28;20113;-84
2022/01/18 03:09:14;;;;;;;10.82;3.13;;;4.50;58.00;;;2.78;64.25;102904.28;8268750;28;20045;-84
2022/01/18 03:13:36;;;;;;;11.02;2.30;;;4.40;58.00;;;2.76;64.11;102908.59;8272983;28;20117;-84
2022/01/18 03:17:58;;;;;;;7.60;2.80;;;4.50;58.10;;;2.75;64.23;102904.25;8265655;28;20117;-84
2022/01/18 03:22:20;;;;;;;4.20;2.13;;;4.50;58.20;;;2.68;64.33;102889.56;8262570;28;20048;-84
2022/01/18 03:31:21;;;;;;;7.40;2.22;;;4.30;58.20;;;2.62;64.03;102878.31;8276275;28;20117;-83
2022/01/18 03:35:45;;;;;;;9.18;2.50;;;4.40;58.30;;;2.63;64.47;102892.94;8257166;28;20120;-84
2022/01/18 03:40:09;;;;;;;6.22;2.08;;;4.40;58.20;;;2.64;64.49;102906.69;8231777;28;20563;-83
2022/01/18 03:44:31;;;;;;;8.32;2.33;;;4.40;58.30;;;2.71;64.13;102907.66;8243752;28;20117;-83
2022/01/18 03:48:54;;;;;;;6.72;1.85;;;4.40;58.30;;;2.64;64.62;102911.84;8263586;28;20121;-83
2022/01/18 03:53:18;;;;;;;5.75;1.95;;;4.50;58.30;;;2.66;64.20;102933.38;8254461;28;20121;-83
2022/01/18 03:57:40;;;;;;;3.53;1.80;;;4.40;58.30;;;2.61;64.63;102928.16;8273855;28;20129;-83
2022/01/18 04:02:02;;;;;;;8.60;2.53;;;4.40;58.40;;;2.60;64.29;102935.88;8268794;28;20046;-83
2022/01/18 04:06:24;;;;;;;7.90;2.28;;;4.40;58.30;;;2.67;64.25;102950.56;8285705;28;20462;-83
2022/01/18 04:10:46;;;;;;;11.10;3.97;;;4.40;58.30;;;2.62;64.53;102935.06;8277884;28;20128;-83
2022/01/18 04:15:15;;;;;;;5.90;2.67;;;4.40;58.30;;;2.63;64.42;102947.09;8260089;28;20121;-83
2022/01/18 04:28:48;;;;;;;4.55;1.85;;;4.30;58.30;;;2.38;64.89;102911.53;8274693;28;20045;-83
2022/01/18 04:33:10;;;;;;;8.07;1.80;;;4.40;58.40;;;2.62;64.12;102954.84;8276560;28;20124;-83
2022/01/18 04:37:31;;;;;;;6.03;2.03;;;4.40;58.30;;;2.61;64.56;102963.41;8256929;28;20121;-82
2022/01/18 04:41:53;;;;;;;4.57;1.90;;;4.30;58.30;;;2.57;64.34;102959.91;8267994;28;20034;-83
2022/01/18 04:51:09;;;;;;;5.32;2.20;;;4.30;58.30;;;2.39;64.64;102946.75;8258917;28;20118;-83
2022/01/18 04:55:32;;;;;;;6.05;2.30;;;4.20;58.30;;;2.45;64.21;102962.31;8252853;28;20113;-83
2022/01/18 04:59:54;;;;;;;7.88;1.75;;;4.30;58.70;;;2.50;64.75;102958.09;8264093;28;20042;-82
2022/01/18 05:04:16;;;;;;;6.47;2.25;;;4.30;58.30;;;2.43;64.55;102958.84;8257599;28;20134;-83
2022/01/18 05:08:38;;;;;;;7.80;2.00;;;4.30;58.30;;;2.47;64.34;102981.25;8253907;28;20494;-82
2022/01/18 05:13:11;;;;;;;5.38;1.77;;;4.30;58.20;;;2.43;64.48;102974.31;8231403;28;20113;-83
2022/01/18 05:17:47;;;;;;;7.93;2.20;;;4.20;58.20;;;2.25;64.20;102943.13;8235717;28;20444;-82
2022/01/18 05:26:31;;;;;;;5.53;2.08;;;4.20;58.20;;;2.40;64.29;102976.84;8268648;28;20125;-83
2022/01/18 05:30:52;;;;;;;8.85;3.05;;;4.20;58.20;;;2.41;64.59;102983.75;8274485;28;20491;-86
2022/01/18 05:35:14;;;;;;;7.57;2.58;;;4.20;58.10;;;2.25;64.36;102958.59;8283783;28;20466;-86
2022/01/18 05:39:36;;;;;;;9.30;2.35;;;4.20;58.10;;;2.32;64.65;102986.16;8259179;28;20117;-85
2022/01/18 05:43:57;;;;;;;9.18;2.03;;;4.40;58.10;;;2.26;64.51;102975.78;8273796;28;20466;-84
2022/01/18 05:48:19;;;;;;;8.02;2.40;;;4.10;58.10;;;2.27;64.21;102980.97;8252196;28;20113;-84
2022/01/18 05:52:41;;;;;;;5.18;2.28;;;4.00;58.10;;;2.27;64.91;102993.84;8262135;28;20570;-85
2022/01/18 05:57:03;;;;;;;7.55;2.70;;;4.00;58.20;;;2.25;64.59;102994.66;8267687;28;20129;-84
2022/01/18 06:01:31;;;;;;;6.00;2.30;;;4.00;58.10;;;2.26;64.87;103009.28;8284874;28;20044;-84
2022/01/18 06:10:37;;;;;;;10.90;3.15;;;4.00;58.10;;;1.95;64.40;102962.41;8258022;28;20126;-85
2022/01/18 06:14:59;;;;;;;6.72;2.03;;;3.90;58.10;;;2.13;64.33;103010.78;8252524;28;20142;-83
2022/01/18 06:19:21;;;;;;;5.15;3.05;;;3.90;58.10;;;2.11;64.45;103013.34;8268114;28;20121;-83
2022/01/18 06:23:43;;;;;;;8.70;2.72;;;3.90;58.20;;;1.96;64.68;102992.47;8261829;28;20498;-88
2022/01/18 06:28:05;;;;;;;7.55;3.03;;;3.70;58.10;;;1.99;64.46;102987.34;8241016;28;20136;-83
2022/01/18 06:32:26;;;;;;;7.57;3.30;;;3.90;58.20;;;2.01;64.46;103013.16;8262396;28;20038;-84
2022/01/18 06:36:48;;;;;;;6.72;2.83;;;3.80;58.20;;;2.05;64.52;103030.41;8251147;28;20043;-84
2022/01/18 06:41:11;;;;;;;8.02;2.95;;;3.80;58.20;;;1.90;64.63;103018.13;8247134;28;20049;-86
2022/01/18 06:45:33;;;;;;;11.90;2.88;;;3.80;58.20;;;1.95;64.40;103029.38;8240247;28;20407;-84
2022/01/18 06:49:54;;;;;;;7.25;2.30;;;3.80;58.20;;;1.96;64.85;103028.53;8230004;28;20031;-83
2022/01/18 06:54:17;;;;;;;7.80;3.03;;;3.80;58.20;;;1.98;64.65;103053.50;8244404;28;20037;-83
2022/01/18 06:58:39;;;;;;;6.13;2.45;;;3.80;58.20;;;1.88;64.40;103020.66;8222070;28;20057;-82
2022/01/18 07:03:01;;;;;;;6.80;2.35;;;3.70;58.20;;;2.00;64.50;103045.81;8237742;28;20050;-84
2022/01/18 07:07:25;;;;;;;12.23;2.42;;;3.80;58.30;;;1.99;64.73;103055.22;8237696;28;20034;-84
2022/01/18 07:11:47;;;;;;;5.13;1.90;;;3.90;58.30;;;1.91;64.91;103046.47;8224460;28;20034;-84
2022/01/18 07:16:12;;;;;;;5.72;2.58;;;3.80;58.20;;;1.95;64.38;103081.78;8237568;28;20056;-84
2022/01/18 07:20:34;;;;;;;8.57;2.77;;;3.60;58.10;;;1.93;64.81;103080.00;8241239;28;20034;-84
2022/01/18 07:24:58;;;;;;;7.75;2.40;;;3.80;58.10;;;1.70;64.75;103049.56;8236043;28;20466;-84
2022/01/18 07:29:20;;;;;;;7.55;1.95;;;3.90;58.10;;;1.88;64.72;103091.94;8237646;28;20116;-84
2022/01/18 07:33:42;;;;;;;9.38;3.70;;;3.90;58.20;;;1.77;64.42;103073.69;8236835;28;20034;-84
2022/01/18 07:38:05;;;;;;;13.32;5.35;;;3.70;58.10;;;1.81;64.48;103098.69;8222595;28;20113;-85
2022/01/18 07:42:27;;;;;;;14.57;5.95;;;3.70;58.10;;;1.79;64.36;103099.50;8257280;28;20038;-84
2022/01/18 07:46:48;;;;;;;16.80;6.45;;;3.70;58.10;;;1.86;64.96;103114.22;8230984;28;20041;-84
2022/01/18 07:51:13;;;;;;;11.48;5.45;;;3.60;58.10;;;1.81;64.70;103120.97;8256863;28;20136;-85
2022/01/18 07:55:35;;;;;;;9.50;4.88;;;3.70;58.20;;;1.88;64.45;103128.88;8235153;28;20036;-84
2022/01/18 07:59:56;;;;;;;11.23;4.15;;;3.70;58.20;;;1.88;64.46;103133.16;8244101;28;20060;-83
2022/01/18 08:04:18;;;;;;;8.60;3.47;;;3.50;58.10;;;1.89;64.46;103140.94;8240604;28;20038;-84
2022/01/18 08:08:40;;;;;;;10.95;2.90;;;3.70;58.30;;;1.83;64.91;103127.03;8264834;28;20038;-84
2022/01/18 08:13:03;;;;;;;9.27;2.95;;;3.60;58.30;;;1.91;64.48;103143.53;8266713;28;20293;-84
2022/01/18 08:17:25;;;;;;;8.68;2.70;;;3.60;58.30;;;1.92;64.82;103148.72;8254724;28;20048;-84
2022/01/18 08:21:47;;;;;;;6.28;3.05;;;3.70;58.50;;;1.98;65.05;103160.84;8262119;28;20068;-84
2022/01/18 08:26:12;;;;;;;4.33;2.13;;;3.80;58.50;;;1.96;65.01;103160.81;8246678;28;20037;-83
2022/01/18 08:30:34;;;;;;;10.95;2.33;;;3.80;58.50;;;2.03;64.82;103164.38;8266308;28;20037;-82
2022/01/18 08:34:55;;;;;;;3.90;2.22;;;3.90;58.60;;;2.02;64.76;103160.06;8244637;28;20038;-83
2022/01/18 08:39:18;;;;;;;5.85;2.30;;;3.90;58.70;;;2.10;65.09;103155.91;8262937;28;20041;-88
2022/01/18 08:43:39;;;;;;;4.75;2.08;;;3.90;58.80;;;2.09;64.89;103153.31;8240946;28;20075;-86
2022/01/18 08:48:02;;;;;;;8.02;2.30;;;4.00;58.90;;;2.13;65.32;103139.66;8269546;28;20046;-84
2022/01/18 08:52:24;;;;;;;6.25;2.55;;;3.90;58.80;;;2.27;64.91;103158.84;8258770;28;20038;-83
2022/01/18 08:56:45;;;;;;;7.25;2.38;;;4.10;58.90;;;2.33;65.13;103163.22;8260519;28;20041;-84
2022/01/18 09:01:07;;;;;;;6.18;2.33;;;4.10;59.00;;;2.35;65.14;103156.38;8259777;28;20052;-85
2022/01/18 09:05:29;;;;;;;5.75;2.67;;;4.10;59.00;;;2.34;65.29;103159.81;8260409;28;20034;-83
2022/01/18 09:09:55;;;;;;;7.07;2.40;;;4.20;59.20;;;2.51;64.99;103168.72;8243753;28;20407;-87
2022/01/18 09:14:17;;;;;;;9.45;2.42;;;4.40;59.30;;;2.57;65.35;103171.41;8274420;28;20046;-84
2022/01/18 09:18:39;;;;;;;6.43;2.25;;;4.40;59.40;;;2.69;65.57;103186.22;8270691;28;20302;-82
2022/01/18 09:23:01;;;;;;;6.63;1.85;;;4.60;59.60;;;2.72;65.22;103173.38;8257850;28;20869;-82
2022/01/18 09:27:22;;;;;;;8.93;2.88;;;4.60;59.70;;;2.84;65.25;103176.16;8254724;28;20388;-82
2022/01/18 09:31:44;;;;;;;6.78;2.30;;;4.70;59.80;;;3.05;65.40;103187.66;8268402;28;20044;-81
2022/01/18 09:36:06;;;;;;;3.28;2.08;;;4.90;59.90;;;3.17;65.40;103198.19;8266925;28;20498;-82
2022/01/18 09:40:28;;;;;;;5.53;2.30;;;5.00;60.00;;;3.12;65.54;103165.41;8267622;28;20041;-83
2022/01/18 09:44:49;;;;;;;4.30;2.13;;;5.10;60.00;;;3.43;65.83;103190.84;8265861;28;20851;-84
2022/01/18 09:49:12;;;;;;;8.20;2.10;;;5.30;60.20;;;3.47;65.67;103179.69;8233799;28;20038;-83
2022/01/18 09:53:34;;;;;;;11.98;4.22;;;5.30;60.10;;;3.70;65.81;103197.22;8249045;28;20042;-84
2022/01/18 09:57:59;;;;;;;6.65;3.10;;;5.40;60.10;;;3.75;65.63;103191.28;8259544;28;20038;-83
2022/01/18 10:02:20;;;;;;;11.63;3.93;;;5.70;60.20;;;3.96;65.94;103198.41;8243992;28;20064;-83
2022/01/18 10:06:43;;;;;;;7.93;2.78;;;5.70;60.20;;;3.93;65.91;103162.19;8248604;28;20034;-84
2022/01/18 10:11:14;;;;;;;8.07;3.45;;;5.80;60.20;;;4.21;65.76;103178.00;8250047;28;20073;-83
2022/01/18 10:15:36;;;;;;;6.45;2.40;;;6.10;60.40;;;4.42;65.86;103191.19;8246261;28;20485;-86
2022/01/18 10:20:10;;;;;;;5.85;2.47;;;6.30;60.60;;;4.54;66.42;103174.94;8235899;28;20034;-86
2022/01/18 10:24:31;;;;;;;6.18;2.13;;;6.40;60.70;;;4.78;66.01;103182.06;8234117;28;20050;-85
2022/01/18 10:29:06;;;;;;;10.60;2.03;;;6.60;60.50;;;4.90;66.39;103177.81;8214034;28;20443;-85
2022/01/18 10:33:35;;;;;;;3.55;1.60;;;6.80;60.30;;;5.08;65.93;103186.59;8242102;28;20042;-85
2022/01/18 10:37:56;;;;;;;3.33;1.85;;;7.00;60.00;;;5.14;66.23;103175.41;8250377;28;20055;-84
2022/01/18 10:42:47;;;;;;;7.32;1.60;;;7.10;59.90;;;5.35;65.91;103194.53;8263050;28;20188;-85
2022/01/18 10:47:09;;;;;;;8.98;1.77;;;7.30;59.80;;;5.54;65.77;103212.81;8204896;28;20042;-84
2022/01/18 10:51:35;;;;;;;5.13;1.88;;;7.30;59.60;;;5.62;66.27;103207.69;8253247;28;20038;-85
2022/01/18 10:56:17;;;;;;;;;;;7.50;59.50;;;5.57;65.87;103162.72;8255985;28;20042;-85
2022/01/18 11:00:39;;;;;;;5.15;1.10;;;7.60;59.50;;;5.65;66.00;103174.00;8237034;28;19924;-85
2022/01/18 11:05:17;;;;;;;4.28;1.60;;;7.70;59.30;;;5.64;65.63;103164.47;8215748;28;20039;-85
2022/01/18 11:09:40;;;;;;;7.45;1.50;;;7.70;59.00;;;5.77;65.71;103184.41;8230884;28;20119;-87
2022/01/18 11:14:02;;;;;;;4.80;1.40;;;7.70;59.00;;;5.84;65.98;103190.50;8222004;28;20411;-84
2022/01/18 11:18:29;;;;;;;4.70;1.45;;;7.80;58.90;;;5.78;65.79;103180.13;8219075;28;20035;-94
2022/01/18 11:22:51;;;;;;;4.10;1.13;;;7.80;58.90;;;5.92;65.48;103193.13;8238120;28;20041;-85
2022/01/18 11:27:18;;;;;;;4.55;1.65;;;7.80;58.80;;;5.91;65.59;103178.41;8263278;28;20121;-87
2022/01/18 11:31:40;;;;;;;5.10;2.00;;;7.90;58.70;;;6.10;65.23;103198.44;8250817;28;20113;-89
2022/01/18 11:36:08;;;;;;;2.80;1.42;;;7.90;58.80;;;6.06;65.54;103181.09;8262963;28;20128;-85
2022/01/18 11:40:57;;;;;;;5.05;1.55;;;8.00;58.80;;;6.10;65.59;103182.88;8238466;28;20175;-87
2022/01/18 11:45:24;;;;;;;4.85;1.25;;;8.00;58.60;;;6.23;65.12;103198.44;8255255;28;20458;-88
2022/01/18 11:49:48;;;;;;;4.93;1.30;;;8.00;58.60;;;6.15;65.08;103186.31;8263672;28;20543;-86
2022/01/18 11:59:17;;;;;;;3.45;1.20;;;8.10;58.50;;;6.34;65.29;103209.72;8276981;28;20125;-84
2022/01/18 12:03:47;;;;;;;5.93;1.52;;;8.20;58.30;;;6.25;65.34;103194.13;8259082;28;20060;-83
2022/01/18 12:08:09;;;;;;;2.60;1.02;;;8.20;58.40;;;6.30;65.20;103201.06;8256143;28;20037;-85
2022/01/18 12:12:40;;;;;;;3.08;1.13;;;8.20;58.40;;;6.41;65.05;103214.94;8243940;28;20038;-84
2022/01/18 12:17:15;;;;;;;3.42;1.05;;;8.20;57.90;;;6.39;65.19;103213.19;8271977;28;20132;-84
2022/01/18 12:21:45;;;;;;;7.07;1.40;;;8.30;57.90;;;6.39;65.25;103220.97;8279769;28;20132;-84
2022/01/18 12:26:16;;;;;;;3.22;1.00;;;8.30;58.00;;;6.46;64.88;103216.69;8248592;28;20128;-83
2022/01/18 12:31:04;;;;;;;1.65;0.98;;;8.10;57.90;;;6.38;64.90;103193.31;8257512;28;20117;-84
2022/01/18 12:35:27;;;;;;;1.70;0.90;;;8.30;58.00;;;6.45;64.70;103199.34;8246683;28;20113;-83
2022/01/18 12:44:25;;;;;;;5.80;1.52;;;8.20;57.90;;;6.50;64.94;103198.50;8274972;28;20042;-83
2022/01/18 12:48:48;;;;;;;4.00;1.98;;;8.30;58.00;;;6.34;65.04;103161.28;8258086;28;20030;-85
2022/01/18 12:53:12;;;;;;;3.42;1.30;;;8.30;57.90;;;6.53;64.74;103190.72;8249630;28;20034;-82
2022/01/18 12:57:34;;;;;;;2.08;1.40;;;8.00;57.80;;;6.56;64.39;103179.47;8282277;28;20121;-82
2022/01/18 13:02:19;;;;;;;3.08;1.00;;;8.30;57.90;;;6.63;64.98;103178.63;8246378;28;20050;-83
2022/01/18 13:06:40;;;;;;;2.58;0.82;;;8.40;57.90;;;6.54;64.68;103169.09;8279770;28;20120;-83
2022/01/18 13:11:02;;;;;;;1.13;1.00;;;8.40;57.80;;;6.67;64.32;103184.69;8276794;28;20045;-83
2022/01/18 13:15:52;;;;;;;4.80;1.48;;;8.40;57.80;;;6.64;64.55;103170.84;8254385;28;20120;-83
2022/01/18 13:29:28;;;;;;;4.32;2.10;;;8.50;57.90;;;6.76;64.56;103195.09;8280397;28;20121;-83
2022/01/18 13:33:57;;;;;;;1.40;1.20;;;8.50;58.10;;;6.81;64.58;103198.56;8265046;28;20113;-83
2022/01/18 13:38:22;;;;;;;3.40;1.58;;;8.50;57.80;;;6.82;64.79;103189.88;8276144;28;20551;-82
2022/01/18 13:42:53;;;;;;;1.63;1.20;;;8.50;57.80;;;6.65;64.45;103156.13;8254706;28;20118;-83
2022/01/18 13:47:19;;;;;;;1.60;0.80;;;8.60;57.80;;;6.88;64.01;103189.88;8236252;28;20700;-82
2022/01/18 13:52:07;;;;;;;1.52;0.90;;;8.60;57.80;;;6.77;64.49;103176.03;8275825;28;20120;-83
2022/01/18 13:56:29;;;;;;;1.70;1.00;;;8.60;57.70;;;6.89;64.37;103191.63;8255805;28;20051;-81
2022/01/18 14:00:51;;;;;;;2.85;1.20;;;8.60;57.80;;;6.90;64.59;103182.97;8265632;28;20126;-82
2022/01/18 14:05:14;;;;;;;2.50;1.30;;;8.60;57.80;;;6.73;64.27;103157.00;8239628;28;20476;-82
2022/01/18 14:09:36;;;;;;;2.72;1.05;;;8.70;57.90;;;6.95;64.53;103177.78;8261631;28;20431;-81
2022/01/18 14:13:59;;;;;;;0.88;0.80;;;8.70;57.90;;;6.91;64.31;103168.25;8268213;28;20436;-81
2022/01/18 14:18:20;;;;;;;4.57;1.05;;;8.60;57.80;;;6.96;64.60;103175.16;8258567;28;20121;-82
2022/01/18 14:22:42;;;;;;;5.05;1.60;;;8.70;57.90;;;6.95;64.64;103177.78;8235923;28;20042;-82
2022/01/18 14:27:08;;;;;;;3.78;2.25;;;8.70;57.80;;;7.01;64.24;103181.22;8217151;28;20046;-81
2022/01/18 14:31:30;;;;;;;1.83;1.55;;;8.70;57.80;;;7.03;64.40;103199.41;8252734;28;20030;-81
2022/01/18 14:35:51;;;;;;;4.05;1.90;;;8.70;57.90;;;6.93;64.37;103176.91;8259887;28;20113;-82
2022/01/18 14:40:26;;;;;;;2.72;1.23;;;8.70;57.80;;;6.97;64.42;103176.06;8233765;28;20034;-81
2022/01/18 14:45:00;;;;;;;2.22;1.27;;;8.70;57.80;;;7.04;64.38;103185.53;8283617;28;20037;-81
2022/01/18 14:49:22;;;;;;;4.13;1.33;;;8.70;57.90;;;7.04;64.28;103185.53;8272864;28;20444;-82
2022/01/18 14:53:44;;;;;;;2.20;1.27;;;8.80;58.30;;;7.01;64.40;103189.00;8272012;28;20109;-83
2022/01/18 14:58:06;;;;;;;1.17;1.08;;;8.70;57.90;;;7.00;64.08;103187.28;8262172;28;20125;-84
2022/01/18 15:02:30;;;;;;;1.42;1.00;;;8.70;57.90;;;6.99;64.43;103184.69;8235506;28;20038;-85
2022/01/18 15:06:53;;;;;;;1.70;1.30;;;8.70;57.90;;;7.04;64.40;103189.00;8243888;28;20113;-86
2022/01/18 15:11:14;;;;;;;1.40;1.30;;;8.70;57.90;;;7.04;64.37;103186.41;8270623;28;20117;-84
2022/01/18 15:15:37;;;;;;;2.53;1.85;;;9.00;58.00;;;7.03;64.30;103189.03;8268547;28;20116;-84
2022/01/18 15:19:59;;;;;;;3.88;1.60;;;8.70;57.90;;;6.99;64.45;103188.13;8256428;28;20112;-81
2022/01/18 15:24:21;;;;;;;1.40;1.30;;;8.70;58.00;;;6.93;64.01;103177.75;8268917;28;20040;-85
2022/01/18 15:28:43;;;;;;;1.30;0.95;;;8.70;58.00;;;7.01;64.04;103193.34;8253707;28;20121;-83
2022/01/18 15:33:08;;;;;;;1.45;1.25;;;8.70;58.00;;;6.94;63.77;103170.81;8249750;28;20072;-83
2022/01/18 15:37:30;;;;;;;3.03;1.13;;;8.70;58.10;;;7.05;64.04;103189.91;8274741;28;20048;-83
2022/01/18 15:41:52;;;;;;;2.97;0.90;;;8.70;58.10;;;6.74;64.30;103145.75;8246828;28;20125;-83
2022/01/18 15:46:15;;;;;;;1.15;0.82;;;8.60;58.00;;;7.05;64.13;103184.69;8256738;28;20124;-83
2022/01/18 15:50:36;;;;;;;2.53;2.15;;;8.70;58.10;;;7.06;64.30;103191.63;8274844;28;20578;-84
2022/01/18 15:54:58;;;;;;;1.45;1.27;;;8.70;58.00;;;7.00;64.21;103186.44;8262084;28;20035;-83
2022/01/18 15:59:21;;;;;;;3.28;1.20;;;8.70;58.10;;;6.98;63.83;103186.41;8233893;28;20034;-83
2022/01/18 16:03:43;;;;;;;2.03;1.40;;;8.70;58.10;;;6.95;64.18;103177.78;8229720;28;20052;-83
2022/01/18 16:08:05;;;;;;;5.63;3.85;;;8.70;58.10;;;6.99;64.07;103180.34;8242684;28;20040;-84
2022/01/18 16:12:27;;;;;;;4.32;2.53;;;8.70;58.10;;;7.11;64.13;103207.22;8219087;28;20038;-83
2022/01/18 16:16:48;;;;;;;3.40;1.85;;;8.80;58.10;;;7.03;64.20;103184.69;8241736;28;20477;-83
2022/01/18 16:21:11;;;;;;;1.80;1.42;;;8.70;58.10;;;7.12;63.73;103193.34;8237670;28;20042;-83
2022/01/18 16:25:33;;;;;;;2.28;1.70;;;8.80;58.10;;;7.00;64.04;103171.72;8221360;28;20053;-83
2022/01/18 16:29:54;;;;;;;2.75;1.60;;;8.80;58.10;;;7.05;63.93;103167.38;8243855;28;20112;-83
2022/01/18 16:34:17;;;;;;;2.30;1.20;;;8.80;58.10;;;7.08;63.87;103180.34;8238632;28;20050;-83
2022/01/18 16:38:38;;;;;;;1.52;1.40;;;8.80;58.10;;;7.04;64.04;103176.00;8262863;28;20046;-82
2022/01/18 16:43:00;;;;;;;3.38;1.50;;;8.80;58.20;;;7.09;64.01;103178.63;8265335;28;20042;-83
2022/01/18 16:47:22;;;;;;;2.22;1.73;;;8.80;58.10;;;7.13;64.01;103174.28;8259377;28;20450;-83
2022/01/18 16:51:44;;;;;;;1.95;1.80;;;8.80;58.10;;;7.16;63.71;103176.91;8249245;28;20044;-86
2022/01/18 16:56:08;;;;;;;3.67;2.88;;;8.70;58.10;;;7.12;63.83;103156.97;8240119;28;20527;-83
2022/01/18 17:00:30;;;;;;;7.25;5.07;;;8.80;58.10;;;7.11;64.30;103155.25;8255123;28;20045;-84
2022/01/18 17:04:51;;;;;;;10.60;5.72;;;8.80;58.10;;;7.07;64.11;103157.84;8224006;28;20053;-84
2022/01/18 17:09:13;;;;;;;6.60;4.90;;;8.80;58.10;;;7.17;63.91;103183.81;8236566;28;20042;-84
2022/01/18 17:13:36;;;;;;;4.95;3.95;;;8.80;58.20;;;7.03;64.17;103150.06;8231169;28;20049;-84
2022/01/18 17:17:58;;;;;;;4.75;3.45;;;8.80;58.20;;;7.00;64.19;103137.94;8236150;28;20649;-84
2022/01/18 17:22:20;;;;;;;5.63;3.42;;;8.80;58.20;;;7.16;63.62;103169.09;8242103;28;20040;-83
2022/01/18 17:26:41;;;;;;;3.38;2.88;;;8.80;58.20;;;7.06;64.16;103163.03;8227836;28;20535;-84
2022/01/18 17:31:04;;;;;;;3.97;2.45;;;8.80;58.20;;;7.07;63.85;103157.84;8237791;28;20038;-84
2022/01/18 17:35:26;;;;;;;2.60;2.15;;;8.90;58.20;;;7.15;64.06;103188.13;8249247;28;20034;-83
2022/01/18 17:39:47;;;;;;;4.68;2.40;;;8.80;58.20;;;7.08;63.86;103174.31;8239500;28;20558;-84
2022/01/18 17:44:09;;;;;;;3.20;2.35;;;8.80;58.30;;;7.14;64.16;103187.28;8238854;28;20399;-83
2022/01/18 17:48:31;;;;;;;4.63;2.70;;;8.80;58.30;;;7.09;64.11;103184.69;8260533;28;20049;-83
2022/01/18 17:52:52;;;;;;;2.67;2.47;;;8.80;58.30;;;7.07;64.15;103172.56;8247880;28;20827;-83
2022/01/18 17:57:14;;;;;;;3.30;2.08;;;8.80;58.30;;;7.00;64.38;103148.31;8220657;28;20953;-84
2022/01/18 18:01:36;;;;;;;2.80;2.20;;;8.80;58.30;;;7.14;64.23;103170.81;8238624;28;20044;-84
2022/01/18 18:06:00;;;;;;;3.28;1.90;;;8.80;58.40;;;7.13;64.22;103158.69;8232598;28;20053;-82
2022/01/18 18:10:22;;;;;;;2.83;1.83;;;8.80;58.40;;;7.12;63.82;103150.03;8228655;28;20044;-83
2022/01/18 18:14:43;;;;;;;4.22;2.50;;;8.80;58.40;;;7.02;64.15;103146.59;8240432;28;20046;-83
2022/01/18 18:19:05;;;;;;;3.58;2.40;;;8.70;58.40;;;7.02;64.33;103132.72;8216229;28;20049;-83
2022/01/18 18:23:27;;;;;;;3.35;2.42;;;8.80;58.40;;;7.08;63.83;103156.97;8247927;28;20521;-83
2022/01/18 18:27:49;;;;;;;3.00;2.33;;;8.80;58.50;;;6.92;64.38;103118.91;8245110;28;20042;-84
2022/01/18 18:32:11;;;;;;;3.97;2.40;;;8.70;58.50;;;7.09;64.34;103143.09;8250616;28;20042;-84
2022/01/18 18:36:33;;;;;;;3.33;2.40;;;8.70;58.50;;;7.00;64.20;103109.34;8260515;28;20030;-83
2022/01/18 18:41:05;;;;;;;4.10;2.13;;;8.70;58.60;;;7.08;64.70;103118.00;8238812;28;20038;-83
2022/01/18 18:45:32;;;;;;;3.83;1.88;;;8.70;58.60;;;7.04;64.50;103094.63;8243743;28;20048;-83
2022/01/18 18:49:54;;;;;;;5.10;2.30;;;8.60;58.60;;;6.94;63.88;103101.59;8247582;28;20034;-83
2022/01/18 18:54:18;;;;;;;6.32;2.45;;;8.70;58.70;;;7.05;64.09;103124.94;8223649;28;20050;-84
2022/01/18 19:03:05;;;;;;;3.72;1.85;;;8.70;58.70;;;6.98;64.14;103124.06;8245152;28;20051;-82
2022/01/18 19:07:26;;;;;;;7.82;2.88;;;8.60;59.10;;;7.09;64.17;103137.06;8238219;28;20551;-82
2022/01/18 19:11:48;;;;;;;4.07;3.13;;;8.80;58.90;;;7.03;64.19;103135.34;8247001;28;20042;-82
2022/01/18 19:16:10;;;;;;;3.47;2.10;;;8.70;58.90;;;7.03;64.10;103130.13;8239451;28;20525;-82
2022/01/18 19:20:32;;;;;;;3.80;2.00;;;8.70;58.90;;;7.04;64.59;103133.59;8236190;28;20048;-83
2022/01/18 19:24:54;;;;;;;5.60;3.20;;;8.70;58.90;;;7.09;64.14;103143.09;8224829;28;20038;-83
2022/01/18 19:29:15;;;;;;;3.63;2.15;;;8.70;59.00;;;7.13;64.15;103154.38;8231646;28;20038;-83
2022/01/18 19:33:37;;;;;;;5.05;3.22;;;8.70;59.00;;;7.09;64.33;103143.09;8234394;28;20050;-83
2022/01/18 19:37:59;;;;;;;5.40;3.20;;;8.70;59.00;;;6.87;64.57;103105.06;8233501;28;20679;-82
2022/01/18 19:42:35;;;;;;;5.15;3.25;;;8.80;59.00;;;7.13;63.98;103133.59;8240184;28;20056;-83
2022/01/18 19:46:57;;;;;;;4.28;3.10;;;8.80;59.10;;;6.99;64.56;103097.22;8234618;28;20049;-83
2022/01/18 19:51:19;;;;;;;2.72;2.30;;;8.70;59.00;;;7.01;64.54;103087.69;8230436;28;20034;-83
2022/01/18 19:55:41;;;;;;;4.15;3.13;;;8.80;59.10;;;7.12;64.08;103097.22;8234711;28;20068;-82
2022/01/18 20:00:07;;;;;;;5.00;2.97;;;8.80;59.10;;;7.16;64.70;103107.59;8238894;28;20622;-83